sensor_id;sensor_type;location;lat;lon;timestamp;P1;durP1;ratioP1;P2;durP2;ratioP2
3597;SDS011;1813;52.016;8.714;2024-01-06T00:02:42;23.90;;;17.30;;
3597;SDS011;1813;52.016;8.714;2024-01-06T00:05:15;25.07;;;17.80;;
3597;SDS011;1813;52.016;8.714;2024-01-06T00:07:51;24.50;;;17.47;;
3597;SDS011;1813;52.016;8.714;2024-01-06T00:10:24;28.17;;;17.97;;
3597;SDS011;1813;52.016;8.714;2024-01-06T00:12:57;26.33;;;17.80;;
3597;SDS011;1813;52.016;8.714;2024-01-06T00:15:31;27.70;;;16.60;;
3597;SDS011;1813;52.016;8.714;2024-01-06T00:18:06;26.47;;;18.07;;
3597;SDS011;1813;52.016;8.714;2024-01-06T00:20:39;23.80;;;17.10;;
3597;SDS011;1813;52.016;8.714;2024-01-06T00:23:15;26.90;;;16.97;;
3597;SDS011;1813;52.016;8.714;2024-01-06T00:25:49;26.63;;;17.47;;
3597;SDS011;1813;52.016;8.714;2024-01-06T00:28:22;24.80;;;16.90;;
3597;SDS011;1813;52.016;8.714;2024-01-06T00:30:55;24.40;;;16.47;;
3597;SDS011;1813;52.016;8.714;2024-01-06T00:33:29;23.90;;;16.47;;
3597;SDS011;1813;52.016;8.714;2024-01-06T00:36:02;23.20;;;16.40;;
3597;SDS011;1813;52.016;8.714;2024-01-06T00:38:38;27.63;;;17.20;;
3597;SDS011;1813;52.016;8.714;2024-01-06T00:41:12;23.60;;;16.10;;
3597;SDS011;1813;52.016;8.714;2024-01-06T00:43:46;20.10;;;14.80;;
3597;SDS011;1813;52.016;8.714;2024-01-06T00:46:19;20.80;;;14.60;;
3597;SDS011;1813;52.016;8.714;2024-01-06T00:48:52;17.50;;;13.30;;
3597;SDS011;1813;52.016;8.714;2024-01-06T00:51:26;15.73;;;12.37;;
3597;SDS011;1813;52.016;8.714;2024-01-06T00:54:02;18.70;;;13.83;;
3597;SDS011;1813;52.016;8.714;2024-01-06T00:56:36;24.97;;;14.73;;
3597;SDS011;1813;52.016;8.714;2024-01-06T00:59:09;21.67;;;14.10;;
3597;SDS011;1813;52.016;8.714;2024-01-06T01:01:42;21.43;;;15.10;;
3597;SDS011;1813;52.016;8.714;2024-01-06T01:04:16;21.00;;;14.87;;
3597;SDS011;1813;52.016;8.714;2024-01-06T01:06:49;22.10;;;14.90;;
3597;SDS011;1813;52.016;8.714;2024-01-06T01:09:25;22.60;;;14.70;;
3597;SDS011;1813;52.016;8.714;2024-01-06T01:11:58;22.37;;;15.50;;
3597;SDS011;1813;52.016;8.714;2024-01-06T01:14:31;23.50;;;15.57;;
3597;SDS011;1813;52.016;8.714;2024-01-06T01:17:05;24.10;;;16.00;;
3597;SDS011;1813;52.016;8.714;2024-01-06T01:19:38;23.10;;;15.30;;
3597;SDS011;1813;52.016;8.714;2024-01-06T01:22:11;21.93;;;13.93;;
3597;SDS011;1813;52.016;8.714;2024-01-06T01:24:48;22.27;;;14.30;;
3597;SDS011;1813;52.016;8.714;2024-01-06T01:27:23;23.33;;;14.27;;
3597;SDS011;1813;52.016;8.714;2024-01-06T01:29:56;19.37;;;13.27;;
3597;SDS011;1813;52.016;8.714;2024-01-06T01:32:30;20.60;;;13.73;;
3597;SDS011;1813;52.016;8.714;2024-01-06T01:35:03;19.10;;;13.33;;
3597;SDS011;1813;52.016;8.714;2024-01-06T01:37:37;18.97;;;12.57;;
3597;SDS011;1813;52.016;8.714;2024-01-06T01:40:13;19.93;;;14.03;;
3597;SDS011;1813;52.016;8.714;2024-01-06T01:42:46;17.80;;;13.10;;
3597;SDS011;1813;52.016;8.714;2024-01-06T01:45:20;18.97;;;13.30;;
3597;SDS011;1813;52.016;8.714;2024-01-06T01:47:53;20.50;;;13.67;;
3597;SDS011;1813;52.016;8.714;2024-01-06T01:50:26;20.10;;;14.17;;
3597;SDS011;1813;52.016;8.714;2024-01-06T01:53:01;20.70;;;14.37;;
3597;SDS011;1813;52.016;8.714;2024-01-06T01:55:37;21.70;;;13.67;;
3597;SDS011;1813;52.016;8.714;2024-01-06T01:58:10;20.37;;;13.87;;
3597;SDS011;1813;52.016;8.714;2024-01-06T02:00:45;20.30;;;13.70;;
3597;SDS011;1813;52.016;8.714;2024-01-06T02:03:19;21.10;;;13.90;;
3597;SDS011;1813;52.016;8.714;2024-01-06T02:05:53;19.93;;;13.63;;
3597;SDS011;1813;52.016;8.714;2024-01-06T02:08:26;20.70;;;13.60;;
3597;SDS011;1813;52.016;8.714;2024-01-06T02:11:02;22.23;;;13.27;;
3597;SDS011;1813;52.016;8.714;2024-01-06T02:13:36;21.67;;;13.90;;
3597;SDS011;1813;52.016;8.714;2024-01-06T02:16:10;20.70;;;13.20;;
3597;SDS011;1813;52.016;8.714;2024-01-06T02:18:43;22.20;;;13.47;;
3597;SDS011;1813;52.016;8.714;2024-01-06T02:21:17;22.37;;;14.17;;
3597;SDS011;1813;52.016;8.714;2024-01-06T02:23:56;26.10;;;14.93;;
3597;SDS011;1813;52.016;8.714;2024-01-06T02:26:29;22.83;;;14.03;;
3597;SDS011;1813;52.016;8.714;2024-01-06T02:29:03;26.03;;;13.30;;
3597;SDS011;1813;52.016;8.714;2024-01-06T02:31:36;22.50;;;14.77;;
3597;SDS011;1813;52.016;8.714;2024-01-06T02:34:09;23.77;;;14.77;;
3597;SDS011;1813;52.016;8.714;2024-01-06T02:36:42;22.23;;;14.13;;
3597;SDS011;1813;52.016;8.714;2024-01-06T02:39:18;23.53;;;14.27;;
3597;SDS011;1813;52.016;8.714;2024-01-06T02:41:54;26.83;;;15.73;;
3597;SDS011;1813;52.016;8.714;2024-01-06T02:44:27;24.60;;;15.20;;
3597;SDS011;1813;52.016;8.714;2024-01-06T02:47:00;24.10;;;14.90;;
3597;SDS011;1813;52.016;8.714;2024-01-06T02:49:33;25.20;;;15.00;;
3597;SDS011;1813;52.016;8.714;2024-01-06T02:52:07;25.27;;;16.27;;
3597;SDS011;1813;52.016;8.714;2024-01-06T02:54:43;25.10;;;15.43;;
3597;SDS011;1813;52.016;8.714;2024-01-06T02:57:17;25.83;;;15.20;;
3597;SDS011;1813;52.016;8.714;2024-01-06T02:59:51;27.73;;;16.10;;
3597;SDS011;1813;52.016;8.714;2024-01-06T03:02:24;29.63;;;16.90;;
3597;SDS011;1813;52.016;8.714;2024-01-06T03:04:58;25.50;;;15.43;;
3597;SDS011;1813;52.016;8.714;2024-01-06T03:07:31;27.80;;;15.90;;
3597;SDS011;1813;52.016;8.714;2024-01-06T03:10:07;27.37;;;16.30;;
3597;SDS011;1813;52.016;8.714;2024-01-06T03:12:41;26.17;;;15.80;;
3597;SDS011;1813;52.016;8.714;2024-01-06T03:15:14;30.67;;;16.63;;
3597;SDS011;1813;52.016;8.714;2024-01-06T03:17:48;30.53;;;17.07;;
3597;SDS011;1813;52.016;8.714;2024-01-06T03:20:21;28.47;;;16.60;;
3597;SDS011;1813;52.016;8.714;2024-01-06T03:22:55;28.63;;;16.67;;
3597;SDS011;1813;52.016;8.714;2024-01-06T03:25:30;30.47;;;17.17;;
3597;SDS011;1813;52.016;8.714;2024-01-06T03:28:04;31.77;;;17.53;;
3597;SDS011;1813;52.016;8.714;2024-01-06T03:30:37;31.33;;;18.13;;
3597;SDS011;1813;52.016;8.714;2024-01-06T03:33:11;33.83;;;18.50;;
3597;SDS011;1813;52.016;8.714;2024-01-06T03:35:44;34.37;;;18.70;;
3597;SDS011;1813;52.016;8.714;2024-01-06T03:38:18;36.10;;;19.43;;
3597;SDS011;1813;52.016;8.714;2024-01-06T03:40:54;32.60;;;18.47;;
3597;SDS011;1813;52.016;8.714;2024-01-06T03:43:27;35.53;;;19.30;;
3597;SDS011;1813;52.016;8.714;2024-01-06T03:46:04;37.90;;;19.60;;
3597;SDS011;1813;52.016;8.714;2024-01-06T03:48:38;36.93;;;20.13;;
3597;SDS011;1813;52.016;8.714;2024-01-06T03:51:12;34.27;;;19.50;;
3597;SDS011;1813;52.016;8.714;2024-01-06T03:53:45;35.00;;;19.47;;
3597;SDS011;1813;52.016;8.714;2024-01-06T03:56:21;39.30;;;20.90;;
3597;SDS011;1813;52.016;8.714;2024-01-06T03:58:54;39.30;;;21.40;;
3597;SDS011;1813;52.016;8.714;2024-01-06T04:01:27;39.50;;;20.90;;
3597;SDS011;1813;52.016;8.714;2024-01-06T04:04:04;39.40;;;21.10;;
3597;SDS011;1813;52.016;8.714;2024-01-06T04:06:38;39.70;;;21.27;;
3597;SDS011;1813;52.016;8.714;2024-01-06T04:09:12;37.87;;;20.20;;
3597;SDS011;1813;52.016;8.714;2024-01-06T04:11:48;38.80;;;20.60;;
3597;SDS011;1813;52.016;8.714;2024-01-06T04:14:21;41.53;;;22.40;;
3597;SDS011;1813;52.016;8.714;2024-01-06T04:16:54;38.07;;;20.93;;
3597;SDS011;1813;52.016;8.714;2024-01-06T04:19:28;44.10;;;22.53;;
3597;SDS011;1813;52.016;8.714;2024-01-06T04:22:01;44.07;;;22.93;;
3597;SDS011;1813;52.016;8.714;2024-01-06T04:24:34;39.97;;;21.70;;
3597;SDS011;1813;52.016;8.714;2024-01-06T04:27:11;42.83;;;22.40;;
3597;SDS011;1813;52.016;8.714;2024-01-06T04:29:44;39.27;;;21.03;;
3597;SDS011;1813;52.016;8.714;2024-01-06T04:32:17;43.90;;;22.30;;
3597;SDS011;1813;52.016;8.714;2024-01-06T04:34:51;38.80;;;21.50;;
3597;SDS011;1813;52.016;8.714;2024-01-06T04:37:24;37.00;;;20.73;;
3597;SDS011;1813;52.016;8.714;2024-01-06T04:39:57;41.90;;;21.50;;
3597;SDS011;1813;52.016;8.714;2024-01-06T04:42:33;40.27;;;22.03;;
3597;SDS011;1813;52.016;8.714;2024-01-06T04:45:07;36.60;;;21.00;;
3597;SDS011;1813;52.016;8.714;2024-01-06T04:47:41;38.30;;;21.80;;
3597;SDS011;1813;52.016;8.714;2024-01-06T04:50:14;40.57;;;21.80;;
3597;SDS011;1813;52.016;8.714;2024-01-06T04:52:47;34.47;;;19.57;;
3597;SDS011;1813;52.016;8.714;2024-01-06T04:55:21;33.80;;;19.70;;
3597;SDS011;1813;52.016;8.714;2024-01-06T04:57:57;34.43;;;20.10;;
3597;SDS011;1813;52.016;8.714;2024-01-06T05:00:32;36.20;;;19.93;;
3597;SDS011;1813;52.016;8.714;2024-01-06T05:03:06;32.27;;;18.40;;
3597;SDS011;1813;52.016;8.714;2024-01-06T05:05:39;35.40;;;19.40;;
3597;SDS011;1813;52.016;8.714;2024-01-06T05:08:12;35.23;;;20.17;;
3597;SDS011;1813;52.016;8.714;2024-01-06T05:10:47;41.53;;;20.23;;
3597;SDS011;1813;52.016;8.714;2024-01-06T05:13:24;33.37;;;19.43;;
3597;SDS011;1813;52.016;8.714;2024-01-06T05:15:58;33.37;;;19.57;;
3597;SDS011;1813;52.016;8.714;2024-01-06T05:18:31;33.23;;;20.10;;
3597;SDS011;1813;52.016;8.714;2024-01-06T05:21:04;35.70;;;20.73;;
3597;SDS011;1813;52.016;8.714;2024-01-06T05:23:38;35.00;;;20.60;;
3597;SDS011;1813;52.016;8.714;2024-01-06T05:26:11;36.23;;;20.03;;
3597;SDS011;1813;52.016;8.714;2024-01-06T05:28:47;36.63;;;20.40;;
3597;SDS011;1813;52.016;8.714;2024-01-06T05:31:21;37.90;;;20.70;;
3597;SDS011;1813;52.016;8.714;2024-01-06T05:33:54;34.27;;;19.77;;
3597;SDS011;1813;52.016;8.714;2024-01-06T05:36:27;33.70;;;18.70;;
3597;SDS011;1813;52.016;8.714;2024-01-06T05:39:01;31.50;;;18.00;;
3597;SDS011;1813;52.016;8.714;2024-01-06T05:41:37;32.27;;;18.30;;
3597;SDS011;1813;52.016;8.714;2024-01-06T05:44:13;35.17;;;19.17;;
3597;SDS011;1813;52.016;8.714;2024-01-06T05:46:47;33.40;;;18.10;;
3597;SDS011;1813;52.016;8.714;2024-01-06T05:49:21;33.30;;;19.07;;
3597;SDS011;1813;52.016;8.714;2024-01-06T05:51:57;36.63;;;18.80;;
3597;SDS011;1813;52.016;8.714;2024-01-06T05:54:30;32.10;;;18.50;;
3597;SDS011;1813;52.016;8.714;2024-01-06T05:57:04;34.73;;;19.23;;
3597;SDS011;1813;52.016;8.714;2024-01-06T05:59:40;35.60;;;19.20;;
3597;SDS011;1813;52.016;8.714;2024-01-06T06:02:13;31.70;;;18.20;;
3597;SDS011;1813;52.016;8.714;2024-01-06T06:04:46;30.47;;;17.27;;
3597;SDS011;1813;52.016;8.714;2024-01-06T06:07:19;36.27;;;19.30;;
3597;SDS011;1813;52.016;8.714;2024-01-06T06:09:53;34.37;;;18.10;;
3597;SDS011;1813;52.016;8.714;2024-01-06T06:12:26;35.40;;;18.17;;
3597;SDS011;1813;52.016;8.714;2024-01-06T06:15:02;33.97;;;17.63;;
3597;SDS011;1813;52.016;8.714;2024-01-06T06:17:36;31.27;;;17.77;;
3597;SDS011;1813;52.016;8.714;2024-01-06T06:20:10;25.77;;;14.43;;
3597;SDS011;1813;52.016;8.714;2024-01-06T06:22:44;20.60;;;11.93;;
3597;SDS011;1813;52.016;8.714;2024-01-06T06:25:17;19.73;;;11.50;;
3597;SDS011;1813;52.016;8.714;2024-01-06T06:27:51;16.43;;;10.10;;
3597;SDS011;1813;52.016;8.714;2024-01-06T06:30:27;17.33;;;9.60;;
3597;SDS011;1813;52.016;8.714;2024-01-06T06:33:00;14.37;;;8.50;;
3597;SDS011;1813;52.016;8.714;2024-01-06T06:35:33;13.60;;;7.73;;
3597;SDS011;1813;52.016;8.714;2024-01-06T06:38:06;11.73;;;7.60;;
3597;SDS011;1813;52.016;8.714;2024-01-06T06:40:40;9.17;;;6.70;;
3597;SDS011;1813;52.016;8.714;2024-01-06T06:43:13;9.43;;;6.50;;
3597;SDS011;1813;52.016;8.714;2024-01-06T06:45:49;10.47;;;6.90;;
3597;SDS011;1813;52.016;8.714;2024-01-06T06:48:23;9.20;;;7.00;;
3597;SDS011;1813;52.016;8.714;2024-01-06T06:50:57;12.30;;;6.97;;
3597;SDS011;1813;52.016;8.714;2024-01-06T06:53:30;13.20;;;8.00;;
3597;SDS011;1813;52.016;8.714;2024-01-06T06:56:05;14.97;;;9.13;;
3597;SDS011;1813;52.016;8.714;2024-01-06T06:58:40;16.40;;;9.80;;
3597;SDS011;1813;52.016;8.714;2024-01-06T07:01:16;19.20;;;9.90;;
3597;SDS011;1813;52.016;8.714;2024-01-06T07:03:50;20.40;;;11.43;;
3597;SDS011;1813;52.016;8.714;2024-01-06T07:06:26;19.47;;;11.23;;
3597;SDS011;1813;52.016;8.714;2024-01-06T07:09:00;14.20;;;9.93;;
3597;SDS011;1813;52.016;8.714;2024-01-06T07:11:35;13.47;;;10.27;;
3597;SDS011;1813;52.016;8.714;2024-01-06T07:14:08;14.43;;;10.40;;
3597;SDS011;1813;52.016;8.714;2024-01-06T07:16:47;13.30;;;9.93;;
3597;SDS011;1813;52.016;8.714;2024-01-06T07:19:21;16.00;;;11.13;;
3597;SDS011;1813;52.016;8.714;2024-01-06T07:21:54;15.80;;;10.87;;
3597;SDS011;1813;52.016;8.714;2024-01-06T07:24:32;14.67;;;10.50;;
3597;SDS011;1813;52.016;8.714;2024-01-06T07:27:08;14.77;;;10.27;;
3597;SDS011;1813;52.016;8.714;2024-01-06T07:29:42;13.40;;;9.90;;
3597;SDS011;1813;52.016;8.714;2024-01-06T07:32:17;12.97;;;9.37;;
3597;SDS011;1813;52.016;8.714;2024-01-06T07:34:51;14.30;;;9.83;;
3597;SDS011;1813;52.016;8.714;2024-01-06T07:37:26;15.90;;;10.00;;
3597;SDS011;1813;52.016;8.714;2024-01-06T07:40:02;14.63;;;9.43;;
3597;SDS011;1813;52.016;8.714;2024-01-06T07:42:35;15.40;;;10.50;;
3597;SDS011;1813;52.016;8.714;2024-01-06T07:45:09;13.53;;;9.80;;
3597;SDS011;1813;52.016;8.714;2024-01-06T07:47:48;14.43;;;9.83;;
3597;SDS011;1813;52.016;8.714;2024-01-06T07:50:25;13.27;;;9.00;;
3597;SDS011;1813;52.016;8.714;2024-01-06T07:52:59;12.77;;;9.80;;
3597;SDS011;1813;52.016;8.714;2024-01-06T07:55:34;13.60;;;9.67;;
3597;SDS011;1813;52.016;8.714;2024-01-06T07:58:08;12.57;;;9.97;;
3597;SDS011;1813;52.016;8.714;2024-01-06T08:00:43;13.80;;;10.10;;
3597;SDS011;1813;52.016;8.714;2024-01-06T08:03:19;13.43;;;9.50;;
3597;SDS011;1813;52.016;8.714;2024-01-06T08:05:53;15.30;;;10.50;;
3597;SDS011;1813;52.016;8.714;2024-01-06T08:08:27;11.87;;;8.80;;
3597;SDS011;1813;52.016;8.714;2024-01-06T08:11:02;9.80;;;8.40;;
3597;SDS011;1813;52.016;8.714;2024-01-06T08:13:37;15.40;;;8.03;;
3597;SDS011;1813;52.016;8.714;2024-01-06T08:16:10;11.23;;;8.30;;
3597;SDS011;1813;52.016;8.714;2024-01-06T08:18:49;8.70;;;7.77;;
3597;SDS011;1813;52.016;8.714;2024-01-06T08:21:22;9.07;;;7.97;;
3597;SDS011;1813;52.016;8.714;2024-01-06T08:23:56;9.30;;;7.57;;
3597;SDS011;1813;52.016;8.714;2024-01-06T08:26:29;9.00;;;7.57;;
3597;SDS011;1813;52.016;8.714;2024-01-06T08:29:03;9.77;;;7.43;;
3597;SDS011;1813;52.016;8.714;2024-01-06T08:31:39;7.70;;;6.90;;
3597;SDS011;1813;52.016;8.714;2024-01-06T08:34:17;9.73;;;7.30;;
3597;SDS011;1813;52.016;8.714;2024-01-06T08:36:50;9.27;;;7.30;;
3597;SDS011;1813;52.016;8.714;2024-01-06T08:39:24;8.40;;;6.90;;
3597;SDS011;1813;52.016;8.714;2024-01-06T08:41:57;8.20;;;7.20;;
3597;SDS011;1813;52.016;8.714;2024-01-06T08:44:30;7.77;;;6.80;;
3597;SDS011;1813;52.016;8.714;2024-01-06T08:47:04;8.13;;;7.20;;
3597;SDS011;1813;52.016;8.714;2024-01-06T08:49:40;8.40;;;7.30;;
3597;SDS011;1813;52.016;8.714;2024-01-06T08:52:13;9.97;;;7.90;;
3597;SDS011;1813;52.016;8.714;2024-01-06T08:54:47;10.20;;;8.10;;
3597;SDS011;1813;52.016;8.714;2024-01-06T08:57:20;10.80;;;8.40;;
3597;SDS011;1813;52.016;8.714;2024-01-06T08:59:54;10.20;;;8.10;;
3597;SDS011;1813;52.016;8.714;2024-01-06T09:02:27;13.90;;;9.60;;
3597;SDS011;1813;52.016;8.714;2024-01-06T09:05:03;14.03;;;9.40;;
3597;SDS011;1813;52.016;8.714;2024-01-06T09:07:37;11.53;;;8.83;;
3597;SDS011;1813;52.016;8.714;2024-01-06T09:10:10;12.90;;;9.40;;
3597;SDS011;1813;52.016;8.714;2024-01-06T09:12:44;10.70;;;8.80;;
3597;SDS011;1813;52.016;8.714;2024-01-06T09:15:17;13.83;;;9.20;;
3597;SDS011;1813;52.016;8.714;2024-01-06T09:17:51;11.70;;;8.30;;
3597;SDS011;1813;52.016;8.714;2024-01-06T09:20:27;10.00;;;7.83;;
3597;SDS011;1813;52.016;8.714;2024-01-06T09:23:00;10.80;;;8.37;;
3597;SDS011;1813;52.016;8.714;2024-01-06T09:25:38;12.93;;;9.20;;
3597;SDS011;1813;52.016;8.714;2024-01-06T09:28:16;11.10;;;8.60;;
3597;SDS011;1813;52.016;8.714;2024-01-06T09:30:54;15.93;;;9.57;;
3597;SDS011;1813;52.016;8.714;2024-01-06T09:33:28;13.10;;;9.40;;
3597;SDS011;1813;52.016;8.714;2024-01-06T09:36:08;14.37;;;9.27;;
3597;SDS011;1813;52.016;8.714;2024-01-06T09:38:42;16.70;;;10.30;;
3597;SDS011;1813;52.016;8.714;2024-01-06T09:41:16;18.43;;;10.77;;
3597;SDS011;1813;52.016;8.714;2024-01-06T09:43:50;17.53;;;10.70;;
3597;SDS011;1813;52.016;8.714;2024-01-06T09:46:24;14.37;;;9.83;;
3597;SDS011;1813;52.016;8.714;2024-01-06T09:48:59;13.97;;;9.43;;
3597;SDS011;1813;52.016;8.714;2024-01-06T09:51:35;16.43;;;10.03;;
3597;SDS011;1813;52.016;8.714;2024-01-06T09:54:10;16.60;;;10.80;;
3597;SDS011;1813;52.016;8.714;2024-01-06T09:56:48;19.10;;;11.80;;
3597;SDS011;1813;52.016;8.714;2024-01-06T09:59:22;17.57;;;11.23;;
3597;SDS011;1813;52.016;8.714;2024-01-06T10:01:56;17.60;;;11.23;;
3597;SDS011;1813;52.016;8.714;2024-01-06T10:04:33;19.80;;;11.50;;
3597;SDS011;1813;52.016;8.714;2024-01-06T10:07:09;20.10;;;12.30;;
3597;SDS011;1813;52.016;8.714;2024-01-06T10:09:44;22.90;;;13.40;;
3597;SDS011;1813;52.016;8.714;2024-01-06T10:12:17;20.50;;;12.23;;
3597;SDS011;1813;52.016;8.714;2024-01-06T10:14:50;32.53;;;13.40;;
3597;SDS011;1813;52.016;8.714;2024-01-06T10:17:24;20.30;;;12.10;;
3597;SDS011;1813;52.016;8.714;2024-01-06T10:19:59;20.90;;;11.97;;
3597;SDS011;1813;52.016;8.714;2024-01-06T10:22:37;19.30;;;11.70;;
3597;SDS011;1813;52.016;8.714;2024-01-06T10:25:11;17.63;;;10.97;;
3597;SDS011;1813;52.016;8.714;2024-01-06T10:27:45;17.10;;;10.80;;
3597;SDS011;1813;52.016;8.714;2024-01-06T10:30:18;17.53;;;10.87;;
3597;SDS011;1813;52.016;8.714;2024-01-06T10:32:52;23.47;;;11.23;;
3597;SDS011;1813;52.016;8.714;2024-01-06T10:35:25;17.57;;;11.00;;
3597;SDS011;1813;52.016;8.714;2024-01-06T10:38:01;15.87;;;9.83;;
3597;SDS011;1813;52.016;8.714;2024-01-06T10:40:35;15.10;;;9.47;;
3597;SDS011;1813;52.016;8.714;2024-01-06T10:43:08;12.23;;;8.57;;
3597;SDS011;1813;52.016;8.714;2024-01-06T10:45:42;12.10;;;8.07;;
3597;SDS011;1813;52.016;8.714;2024-01-06T10:48:16;12.00;;;7.63;;
3597;SDS011;1813;52.016;8.714;2024-01-06T10:50:51;9.67;;;7.00;;
3597;SDS011;1813;52.016;8.714;2024-01-06T10:53:27;8.00;;;6.13;;
3597;SDS011;1813;52.016;8.714;2024-01-06T10:56:01;8.07;;;5.40;;
3597;SDS011;1813;52.016;8.714;2024-01-06T10:58:34;7.23;;;5.10;;
3597;SDS011;1813;52.016;8.714;2024-01-06T11:01:13;7.47;;;5.50;;
3597;SDS011;1813;52.016;8.714;2024-01-06T11:03:46;7.57;;;5.80;;
3597;SDS011;1813;52.016;8.714;2024-01-06T11:06:20;9.60;;;6.20;;
3597;SDS011;1813;52.016;8.714;2024-01-06T11:08:59;10.00;;;6.27;;
3597;SDS011;1813;52.016;8.714;2024-01-06T11:11:37;9.53;;;5.83;;
3597;SDS011;1813;52.016;8.714;2024-01-06T11:14:18;8.57;;;5.70;;
3597;SDS011;1813;52.016;8.714;2024-01-06T11:16:52;11.43;;;6.57;;
3597;SDS011;1813;52.016;8.714;2024-01-06T11:22:20;10.80;;;5.63;;
3597;SDS011;1813;52.016;8.714;2024-01-06T11:25:04;8.43;;;5.43;;
3597;SDS011;1813;52.016;8.714;2024-01-06T11:27:38;9.67;;;5.57;;
3597;SDS011;1813;52.016;8.714;2024-01-06T11:30:21;10.80;;;6.00;;
3597;SDS011;1813;52.016;8.714;2024-01-06T11:32:56;11.50;;;4.83;;
3597;SDS011;1813;52.016;8.714;2024-01-06T11:35:30;10.10;;;5.33;;
3597;SDS011;1813;52.016;8.714;2024-01-06T11:38:06;7.10;;;4.87;;
3597;SDS011;1813;52.016;8.714;2024-01-06T11:40:42;7.00;;;4.60;;
3597;SDS011;1813;52.016;8.714;2024-01-06T11:43:15;7.07;;;4.83;;
3597;SDS011;1813;52.016;8.714;2024-01-06T11:45:52;7.60;;;5.17;;
3597;SDS011;1813;52.016;8.714;2024-01-06T11:48:31;8.80;;;4.93;;
3597;SDS011;1813;52.016;8.714;2024-01-06T11:51:05;9.80;;;5.70;;
3597;SDS011;1813;52.016;8.714;2024-01-06T11:53:39;8.60;;;5.40;;
3597;SDS011;1813;52.016;8.714;2024-01-06T11:56:18;11.13;;;5.50;;
3597;SDS011;1813;52.016;8.714;2024-01-06T11:58:54;9.87;;;6.07;;
3597;SDS011;1813;52.016;8.714;2024-01-06T12:01:27;8.30;;;5.90;;
3597;SDS011;1813;52.016;8.714;2024-01-06T12:04:00;9.40;;;5.60;;
3597;SDS011;1813;52.016;8.714;2024-01-06T12:06:35;12.40;;;6.60;;
3597;SDS011;1813;52.016;8.714;2024-01-06T12:09:10;10.30;;;5.90;;
3597;SDS011;1813;52.016;8.714;2024-01-06T12:11:48;7.57;;;4.83;;
3597;SDS011;1813;52.016;8.714;2024-01-06T12:14:37;9.50;;;4.80;;
3597;SDS011;1813;52.016;8.714;2024-01-06T12:17:27;6.80;;;4.57;;
3597;SDS011;1813;52.016;8.714;2024-01-06T12:20:05;7.03;;;4.73;;
3597;SDS011;1813;52.016;8.714;2024-01-06T12:22:42;7.40;;;5.00;;
3597;SDS011;1813;52.016;8.714;2024-01-06T12:25:15;9.33;;;5.90;;
3597;SDS011;1813;52.016;8.714;2024-01-06T12:27:51;9.77;;;6.03;;
3597;SDS011;1813;52.016;8.714;2024-01-06T12:30:26;8.40;;;5.17;;
3597;SDS011;1813;52.016;8.714;2024-01-06T12:33:01;5.97;;;4.60;;
3597;SDS011;1813;52.016;8.714;2024-01-06T12:35:38;10.77;;;4.67;;
3597;SDS011;1813;52.016;8.714;2024-01-06T12:38:14;4.73;;;3.90;;
3597;SDS011;1813;52.016;8.714;2024-01-06T12:40:47;5.50;;;3.67;;
3597;SDS011;1813;52.016;8.714;2024-01-06T12:43:23;6.07;;;4.60;;
3597;SDS011;1813;52.016;8.714;2024-01-06T12:45:57;5.63;;;3.77;;
3597;SDS011;1813;52.016;8.714;2024-01-06T12:48:30;9.40;;;5.07;;
3597;SDS011;1813;52.016;8.714;2024-01-06T12:51:04;5.70;;;4.23;;
3597;SDS011;1813;52.016;8.714;2024-01-06T12:53:40;6.27;;;4.23;;
3597;SDS011;1813;52.016;8.714;2024-01-06T12:56:13;5.30;;;4.50;;
3597;SDS011;1813;52.016;8.714;2024-01-06T12:58:49;6.57;;;4.67;;
3597;SDS011;1813;52.016;8.714;2024-01-06T13:01:23;9.20;;;5.63;;
3597;SDS011;1813;52.016;8.714;2024-01-06T13:03:57;8.10;;;5.83;;
3597;SDS011;1813;52.016;8.714;2024-01-06T13:06:31;9.50;;;5.70;;
3597;SDS011;1813;52.016;8.714;2024-01-06T13:09:04;10.40;;;6.80;;
3597;SDS011;1813;52.016;8.714;2024-01-06T13:11:42;10.50;;;6.50;;
3597;SDS011;1813;52.016;8.714;2024-01-06T13:14:19;10.10;;;6.50;;
3597;SDS011;1813;52.016;8.714;2024-01-06T13:16:52;8.93;;;6.30;;
3597;SDS011;1813;52.016;8.714;2024-01-06T13:19:25;8.43;;;6.00;;
3597;SDS011;1813;52.016;8.714;2024-01-06T13:21:59;6.47;;;5.23;;
3597;SDS011;1813;52.016;8.714;2024-01-06T13:24:32;8.63;;;6.13;;
3597;SDS011;1813;52.016;8.714;2024-01-06T13:27:05;9.53;;;6.27;;
3597;SDS011;1813;52.016;8.714;2024-01-06T13:29:42;7.47;;;6.10;;
3597;SDS011;1813;52.016;8.714;2024-01-06T13:32:15;10.03;;;6.57;;
3597;SDS011;1813;52.016;8.714;2024-01-06T13:34:49;9.27;;;6.50;;
3597;SDS011;1813;52.016;8.714;2024-01-06T13:37:28;9.50;;;6.03;;
3597;SDS011;1813;52.016;8.714;2024-01-06T13:40:02;9.13;;;6.40;;
3597;SDS011;1813;52.016;8.714;2024-01-06T13:42:37;9.93;;;6.80;;
3597;SDS011;1813;52.016;8.714;2024-01-06T13:45:13;11.17;;;6.80;;
3597;SDS011;1813;52.016;8.714;2024-01-06T13:47:46;10.90;;;7.90;;
3597;SDS011;1813;52.016;8.714;2024-01-06T13:50:20;10.10;;;7.60;;
3597;SDS011;1813;52.016;8.714;2024-01-06T13:52:53;11.90;;;8.27;;
3597;SDS011;1813;52.016;8.714;2024-01-06T13:55:30;12.10;;;7.77;;
3597;SDS011;1813;52.016;8.714;2024-01-06T13:58:03;11.27;;;7.57;;
3597;SDS011;1813;52.016;8.714;2024-01-06T14:00:42;9.97;;;6.77;;
3597;SDS011;1813;52.016;8.714;2024-01-06T14:03:16;11.07;;;7.80;;
3597;SDS011;1813;52.016;8.714;2024-01-06T14:05:49;12.57;;;8.10;;
3597;SDS011;1813;52.016;8.714;2024-01-06T14:08:24;10.40;;;7.67;;
3597;SDS011;1813;52.016;8.714;2024-01-06T14:10:57;12.57;;;8.30;;
3597;SDS011;1813;52.016;8.714;2024-01-06T14:13:30;13.00;;;7.70;;
3597;SDS011;1813;52.016;8.714;2024-01-06T14:16:06;13.63;;;8.17;;
3597;SDS011;1813;52.016;8.714;2024-01-06T14:18:40;11.77;;;8.37;;
3597;SDS011;1813;52.016;8.714;2024-01-06T14:21:13;13.40;;;9.00;;
3597;SDS011;1813;52.016;8.714;2024-01-06T14:23:49;12.60;;;8.53;;
3597;SDS011;1813;52.016;8.714;2024-01-06T14:26:22;13.30;;;8.63;;
3597;SDS011;1813;52.016;8.714;2024-01-06T14:28:56;11.13;;;7.10;;
3597;SDS011;1813;52.016;8.714;2024-01-06T14:31:35;10.07;;;7.20;;
3597;SDS011;1813;52.016;8.714;2024-01-06T14:34:08;11.40;;;7.70;;
3597;SDS011;1813;52.016;8.714;2024-01-06T14:36:42;13.63;;;8.13;;
3597;SDS011;1813;52.016;8.714;2024-01-06T14:39:23;15.10;;;8.60;;
3597;SDS011;1813;52.016;8.714;2024-01-06T14:41:57;12.50;;;8.27;;
3597;SDS011;1813;52.016;8.714;2024-01-06T14:44:30;13.10;;;7.97;;
3597;SDS011;1813;52.016;8.714;2024-01-06T14:47:08;9.30;;;6.90;;
3597;SDS011;1813;52.016;8.714;2024-01-06T14:49:42;9.80;;;6.27;;
3597;SDS011;1813;52.016;8.714;2024-01-06T14:52:16;9.67;;;6.83;;
3597;SDS011;1813;52.016;8.714;2024-01-06T14:54:49;12.47;;;8.20;;
3597;SDS011;1813;52.016;8.714;2024-01-06T14:57:22;12.90;;;8.47;;
3597;SDS011;1813;52.016;8.714;2024-01-06T14:59:56;14.80;;;7.93;;
3597;SDS011;1813;52.016;8.714;2024-01-06T15:02:32;13.43;;;8.27;;
3597;SDS011;1813;52.016;8.714;2024-01-06T15:05:06;13.00;;;8.93;;
3597;SDS011;1813;52.016;8.714;2024-01-06T15:07:40;11.13;;;8.63;;
3597;SDS011;1813;52.016;8.714;2024-01-06T15:10:13;13.40;;;8.60;;
3597;SDS011;1813;52.016;8.714;2024-01-06T15:12:47;13.63;;;8.67;;
3597;SDS011;1813;52.016;8.714;2024-01-06T15:15:22;13.13;;;8.30;;
3597;SDS011;1813;52.016;8.714;2024-01-06T15:18:03;13.40;;;8.13;;
3597;SDS011;1813;52.016;8.714;2024-01-06T15:20:42;11.60;;;7.63;;
3597;SDS011;1813;52.016;8.714;2024-01-06T15:23:18;10.93;;;7.33;;
3597;SDS011;1813;52.016;8.714;2024-01-06T15:25:51;11.93;;;7.37;;
3597;SDS011;1813;52.016;8.714;2024-01-06T15:28:40;10.00;;;7.73;;
3597;SDS011;1813;52.016;8.714;2024-01-06T15:31:18;11.67;;;7.27;;
3597;SDS011;1813;52.016;8.714;2024-01-06T15:33:54;9.73;;;6.90;;
3597;SDS011;1813;52.016;8.714;2024-01-06T15:36:27;9.43;;;6.50;;
3597;SDS011;1813;52.016;8.714;2024-01-06T15:39:01;6.30;;;4.70;;
3597;SDS011;1813;52.016;8.714;2024-01-06T15:41:35;5.27;;;4.10;;
3597;SDS011;1813;52.016;8.714;2024-01-06T15:44:08;4.27;;;3.90;;
3597;SDS011;1813;52.016;8.714;2024-01-06T15:46:42;4.00;;;3.60;;